Jasper — TCTL2 — position and weather

sailwx.info

Track history (hours):
 
Tides and Currents Weather Stations Pressure Air Temp Water Temp Dewpoint Dewpoint Depression Visibility Wind Speed Wind Dir Waves Ship Positions

Jasper

Last reported at 2015-Apr-16 21:05 UTC. Time now 2015-May-07 03:35 UTC.
Position N 40°39' E 028°51'.
Warning: this ship's position is 20 days out of date.

Length 94 m; draft 6.6 m.

Type: Cargo ship. MMSI: 271002689.

Date/timePositionNaut miles runAvg speedWind from/ knotsBaromVisibWave heightAir tempDewpointWater temp
2015-Apr-16 21:05N 40°39' E 028°51'710.5
2015-Apr-16 20:26N 40°45' E 028°55'1011.1
2015-Apr-16 19:32N 40°55' E 028°56'  
2015-Apr-10 18:08N 40°58' E 028°60'3 4.2
2015-Apr-10 17:30N 40°55' E 028°59'9 7.0
2015-Apr-10 16:13N 40°47' E 028°54'1 1.2
2015-Apr-10 15:17N 40°46' E 028°53'4 0.5
2015-Apr-10 07:29N 40°48' E 028°57'3 3.2
2015-Apr-10 06:27N 40°47' E 028°53'7 6.8
2015-Apr-10 05:26N 40°40' E 028°49'  
Track history (hours):
 
Tides and Currents Weather Stations Pressure Air Temp Water Temp Dewpoint Dewpoint Depression Visibility Wind Speed Wind Dir Waves Ship Positions

Jasper

Last reported at 2015-Apr-16 21:05 UTC. Time now 2015-May-07 03:35 UTC.
Position N 40°39' E 028°51'.
Warning: this ship's position is 20 days out of date.

Length 94 m; draft 6.6 m.

Type: Cargo ship. MMSI: 271002689.

Date/timePositionNaut miles runAvg speedWind from/ knotsBaromVisibWave heightAir tempDewpointWater temp
2015-Apr-16 21:05N 40°39' E 028°51'710.5
2015-Apr-16 20:26N 40°45' E 028°55'1011.1
2015-Apr-16 19:32N 40°55' E 028°56'  
2015-Apr-10 18:08N 40°58' E 028°60'3 4.2
2015-Apr-10 17:30N 40°55' E 028°59'9 7.0
2015-Apr-10 16:13N 40°47' E 028°54'1 1.2
2015-Apr-10 15:17N 40°46' E 028°53'4 0.5
2015-Apr-10 07:29N 40°48' E 028°57'3 3.2
2015-Apr-10 06:27N 40°47' E 028°53'7 6.8
2015-Apr-10 05:26N 40°40' E 028°49'  

Dump ship's entire track history